Time;durP1;ratioP1;P1;durP2;ratioP2;P2;SDS_P1;SDS_P2;PMS_P1;PMS_P2;Temp;Humidity;BMP_temperature;BMP_pressure;BME280_temperature;BME280_humidity;BME280_pressure;Samples;Min_cycle;Max_cycle;Signal;HPM_P1;HPM_P2
2022/12/15 00:40:10;;;;;;;0.43;0.43;;;;;;;-2.73;85.08;100814.31;5096280;27;96556;-31
2022/12/15 00:42:36;;;;;;;4.65;2.53;;;;;;;-2.71;84.72;100819.63;5096486;27;96832;-31
2022/12/15 00:45:01;;;;;;;2.05;1.38;;;;;;;-2.73;84.71;100813.44;5096423;27;97855;-32
2022/12/15 00:47:27;;;;;;;1.67;1.52;;;;;;;-2.79;84.35;100809.03;5096562;27;97343;-31
2022/12/15 01:20:16;;;;;;;2.67;2.05;;;;;;;-2.83;84.89;100829.41;5095388;27;97029;-33
2022/12/15 01:22:47;;;;;;;3.65;1.45;;;;;;;-2.81;85.04;100832.94;5077520;27;96674;-32
2022/12/15 01:25:13;;;;;;;3.58;1.08;;;;;;;-2.85;84.61;100841.78;5095428;27;96835;-32
2022/12/15 01:27:39;;;;;;;1.17;1.08;;;;;;;-2.89;84.75;100847.97;5076905;27;101335;-31
2022/12/15 01:30:06;;;;;;;0.75;0.75;;;;;;;-2.89;85.17;100847.97;5077025;27;101002;-31
2022/12/15 01:32:32;;;;;;;0.55;0.55;;;;;;;-2.87;84.93;100856.81;5076724;27;97560;-31
2022/12/15 01:34:57;;;;;;;0.43;0.43;;;;;;;-2.87;85.03;100854.16;5095509;27;96857;-31
2022/12/15 01:37:22;;;;;;;0.47;0.30;;;;;;;-2.89;84.95;100844.47;5095705;27;98437;-31
2022/12/15 01:42:32;;;;;;;0.63;0.63;;;;;;;-2.87;84.71;100870.06;5095841;27;96555;-33
2022/12/15 01:45:22;;;;;;;1.35;1.10;;;;;;;-2.86;84.93;100877.13;5095695;27;96842;-32
2022/12/15 01:47:57;;;;;;;3.22;1.25;;;;;;;-2.88;85.34;100878.03;5095523;27;98002;-32
2022/12/15 01:50:24;;;;;;;0.22;0.22;;;;;;;-2.86;85.50;100885.09;5077090;27;100800;-31
2022/12/15 01:52:53;;;;;;;0.65;0.60;;;;;;;-2.86;84.98;100878.88;5076805;27;96614;-32
2022/12/15 01:55:20;;;;;;;1.83;0.85;;;;;;;-2.82;85.56;100862.06;5076650;27;96833;-33
2022/12/15 01:57:47;;;;;;;4.03;2.03;;;;;;;-2.80;85.82;100865.59;5075778;27;101086;-31
2022/12/15 02:00:13;;;;;;;4.13;1.88;;;;;;;-2.78;86.03;100861.19;5076639;27;100856;-31
2022/12/15 02:02:39;;;;;;;0.93;0.52;;;;;;;-2.75;86.44;100870.88;5076679;27;96990;-31
2022/12/15 02:05:06;;;;;;;4.57;1.33;;;;;;;-2.77;86.41;100862.91;5076538;27;96892;-31
2022/12/15 02:07:32;;;;;;;1.02;0.88;;;;;;;-2.73;85.77;100877.06;5076500;27;102062;-31
2022/12/15 02:10:00;;;;;;;1.20;1.10;;;;;;;-2.78;85.89;100866.47;5095101;27;97844;-31
2022/12/15 02:12:40;;;;;;;0.28;0.17;;;;;;;-2.75;85.67;100870.88;5094824;27;96627;-34
2022/12/15 02:15:23;;;;;;;0.47;0.47;;;;;;;-2.73;85.59;100872.63;5076993;27;96763;-31
2022/12/15 02:18:10;;;;;;;1.20;1.10;;;;;;;-2.77;85.45;100882.34;5076282;27;101228;-31
2022/12/15 02:20:41;;;;;;;0.00;0.00;;;;;;;-2.84;85.29;100885.94;5075889;27;100660;-32
2022/12/15 02:23:07;;;;;;;1.58;1.35;;;;;;;-2.81;85.49;100877.09;5094548;27;96509;-32
2022/12/15 02:26:03;;;;;;;0.63;0.60;;;;;;;-2.84;85.45;100893.00;5094231;27;97952;-31
2022/12/15 02:28:59;;;;;;;3.85;1.63;;;;;;;-2.89;85.42;100881.56;5094897;27;98020;-31
2022/12/15 02:31:49;;;;;;;1.05;0.45;;;;;;;-2.88;85.47;100876.25;5095040;27;97868;-31
2022/12/15 02:34:14;;;;;;;0.40;0.40;;;;;;;-2.86;85.54;100878.88;5076201;27;96738;-31
2022/12/15 02:36:45;;;;;;;0.30;0.28;;;;;;;-2.88;85.86;100873.59;5094880;27;96814;-32
2022/12/15 02:39:11;;;;;;;2.20;1.67;;;;;;;-2.88;85.67;100881.56;5075793;27;101227;-31
2022/12/15 02:41:43;;;;;;;1.40;1.10;;;;;;;-2.89;85.74;100873.59;5075760;27;101249;-31
2022/12/15 02:44:29;;;;;;;1.45;1.25;;;;;;;-2.90;85.57;100878.03;5076193;27;96653;-31
2022/12/15 02:47:10;;;;;;;1.17;0.93;;;;;;;-2.90;85.15;100877.16;5094818;27;96537;-31
2022/12/15 02:50:06;;;;;;;3.05;0.88;;;;;;;-2.93;85.49;100878.06;5075208;27;101399;-31
2022/12/15 02:53:09;;;;;;;0.50;0.50;;;;;;;-2.90;86.13;100882.47;5075642;27;100741;-34
2022/12/15 02:55:45;;;;;;;0.03;0.03;;;;;;;-2.86;86.29;100894.78;5054024;27;96711;-31
2022/12/15 02:58:29;;;;;;;0.90;0.65;;;;;;;-2.88;86.34;100896.59;5075809;27;96780;-32
2022/12/15 03:01:00;;;;;;;0.50;0.50;;;;;;;-2.91;86.22;100899.22;5094209;27;98275;-31
2022/12/15 03:03:28;;;;;;;1.38;1.27;;;;;;;-2.89;86.53;100897.47;5075561;27;100975;-33
2022/12/15 03:05:56;;;;;;;1.27;1.17;;;;;;;-2.89;86.74;100905.41;5075714;27;97169;-32
2022/12/15 03:08:21;;;;;;;0.52;0.47;;;;;;;-2.93;86.29;100899.25;5075929;27;96823;-32
2022/12/15 03:10:49;;;;;;;0.85;0.85;;;;;;;-2.88;86.37;100897.47;5093969;27;97870;-32
2022/12/15 03:13:15;;;;;;;1.02;0.73;;;;;;;-2.87;86.78;100898.34;5075321;27;98814;-33
2022/12/15 03:15:40;;;;;;;0.70;0.70;;;;;;;-2.91;86.39;100893.94;5093875;27;96652;-31
2022/12/15 03:18:06;;;;;;;0.20;0.20;;;;;;;-2.90;86.18;100893.06;5094428;27;97138;-31
2022/12/15 03:20:31;;;;;;;0.75;0.75;;;;;;;-2.92;86.01;100898.34;5093942;27;97570;-32
2022/12/15 03:22:56;;;;;;;0.55;0.55;;;;;;;-2.90;86.01;100901.88;5093915;27;97713;-31
2022/12/15 03:25:22;;;;;;;1.05;0.63;;;;;;;-2.92;85.81;100895.72;5092658;27;96854;-31
2022/12/15 03:27:47;;;;;;;1.20;1.10;;;;;;;-2.95;86.00;100894.88;5094214;27;96848;-32
2022/12/15 03:30:12;;;;;;;0.75;0.75;;;;;;;-2.93;86.04;100899.25;5093842;27;97834;-32
2022/12/15 03:32:38;;;;;;;1.08;0.98;;;;;;;-2.96;85.85;100903.69;5094304;27;98235;-31
2022/12/15 03:35:04;;;;;;;0.40;0.40;;;;;;;-2.96;85.80;100908.97;5093870;27;96741;-31
2022/12/15 03:37:29;;;;;;;1.02;0.95;;;;;;;-2.99;85.99;100910.75;5093535;27;96709;-32
2022/12/15 03:39:55;;;;;;;1.70;1.45;;;;;;;-3.04;85.79;100904.59;5093174;27;97404;-31
2022/12/15 03:45:05;;;;;;;1.23;1.00;;;;;;;-3.00;85.71;100921.38;5093897;27;96669;-31
2022/12/15 03:47:31;;;;;;;1.70;0.98;;;;;;;-2.97;86.38;100912.53;5093913;27;96877;-32
2022/12/15 03:49:56;;;;;;;0.50;0.50;;;;;;;-2.96;87.19;100907.19;5093489;27;99261;-31
2022/12/15 03:52:22;;;;;;;2.72;1.08;;;;;;;-2.96;86.56;100904.56;5073344;27;100702;-32
2022/12/15 03:54:48;;;;;;;1.60;1.48;;;;;;;-2.98;86.57;100911.63;5093303;27;96458;-31
2022/12/15 03:57:13;;;;;;;0.90;0.88;;;;;;;-3.01;86.47;100904.56;5093667;27;96865;-31
2022/12/15 03:59:38;;;;;;;0.77;0.73;;;;;;;-2.99;86.30;100909.88;5093549;27;97337;-32
2022/12/15 04:02:04;;;;;;;0.10;0.10;;;;;;;-3.01;86.67;100907.22;5093492;27;97824;-31
2022/12/15 04:04:29;;;;;;;0.45;0.45;;;;;;;-3.03;85.95;100903.72;5093060;27;96581;-31
2022/12/15 04:06:54;;;;;;;0.40;0.40;;;;;;;-3.04;85.92;100906.38;5093315;27;96792;-31
2022/12/15 04:09:20;;;;;;;0.85;0.85;;;;;;;-2.99;86.76;100910.75;5093033;27;98860;-33
2022/12/15 04:11:45;;;;;;;0.70;0.68;;;;;;;-3.01;86.43;100912.53;5093350;27;97709;-31
2022/12/15 04:14:10;;;;;;;0.55;0.40;;;;;;;-3.01;86.46;100912.53;5093464;27;96497;-32
2022/12/15 04:16:36;;;;;;;0.35;0.35;;;;;;;-3.02;86.07;100910.78;5093307;27;96942;-32
2022/12/15 04:21:45;;;;;;;0.65;0.65;;;;;;;-3.03;86.20;100909.03;5093857;27;97045;-31
2022/12/15 05:32:34;;;;;;;0.30;0.30;;;;;;;-3.17;86.64;100931.16;5095934;27;96725;-32
2022/12/15 05:35:00;;;;;;;0.63;0.60;;;;;;;-3.15;87.14;100929.38;5095553;27;98354;-32
2022/12/15 05:37:25;;;;;;;0.40;0.30;;;;;;;-3.15;87.31;100930.25;5095420;27;99266;-33
2022/12/15 05:39:51;;;;;;;1.08;0.98;;;;;;;-3.17;87.29;100926.75;5095841;27;96454;-31
2022/12/15 05:42:16;;;;;;;0.32;0.32;;;;;;;-3.15;87.51;100943.50;5095883;27;96826;-31
2022/12/15 05:44:42;;;;;;;0.28;0.20;;;;;;;-3.10;88.07;100938.19;5095225;27;99368;-32
2022/12/15 05:47:08;;;;;;;1.40;1.13;;;;;;;-3.05;88.25;100939.03;5095520;27;97822;-32
2022/12/15 05:49:34;;;;;;;1.58;1.35;;;;;;;-3.07;88.27;100938.19;5094929;27;96581;-31
2022/12/15 05:52:00;;;;;;;4.80;2.85;;;;;;;-3.05;87.78;100941.69;5095342;27;96788;-32
2022/12/15 05:54:26;;;;;;;3.67;2.33;;;;;;;-3.07;88.16;100939.06;5095082;27;98964;-32
2022/12/15 05:56:51;;;;;;;0.73;0.45;;;;;;;-3.01;88.34;100944.31;5095440;27;98001;-31
2022/12/15 05:59:17;;;;;;;1.50;0.93;;;;;;;-3.02;88.27;100957.59;5095223;27;96659;-32
2022/12/15 06:01:43;;;;;;;0.50;0.50;;;;;;;-2.99;88.24;100957.56;5076874;27;96890;-31
2022/12/15 06:04:11;;;;;;;1.13;1.02;;;;;;;-2.99;88.47;100958.44;5076466;27;100990;-32
2022/12/15 06:06:37;;;;;;;3.88;0.98;;;;;;;-3.04;88.32;100954.94;5076755;27;100996;-32
2022/12/15 06:09:03;;;;;;;1.17;1.08;;;;;;;-3.03;88.28;100955.81;5095086;27;96586;-31
2022/12/15 06:11:28;;;;;;;2.90;1.45;;;;;;;-3.06;88.35;100950.53;5076578;27;96720;-31
2022/12/15 06:13:54;;;;;;;4.43;1.20;;;;;;;-3.07;87.71;100964.69;5094285;27;99363;-32
2022/12/15 06:16:22;;;;;;;1.38;1.27;;;;;;;-3.05;87.81;100963.78;5075541;27;101231;-31
2022/12/15 06:18:53;;;;;;;2.50;1.73;;;;;;;-3.05;87.89;100958.50;5076357;27;96583;-31
2022/12/15 06:21:23;;;;;;;1.02;0.90;;;;;;;-3.05;88.11;100965.53;5076360;27;96823;-31
2022/12/15 06:23:49;;;;;;;1.45;1.35;;;;;;;-3.05;87.68;100968.19;5076080;27;99281;-33
2022/12/15 06:26:25;;;;;;;1.30;1.20;;;;;;;-3.07;87.58;100973.50;5094519;27;98729;-32
2022/12/15 06:28:51;;;;;;;0.57;0.57;;;;;;;-3.09;87.39;100962.03;5076372;27;96672;-32
2022/12/15 06:31:21;;;;;;;0.45;0.43;;;;;;;-3.07;87.47;100967.34;5076556;27;96820;-31
2022/12/15 06:33:47;;;;;;;3.60;1.25;;;;;;;-3.06;87.42;100966.44;5075991;27;100962;-31
2022/12/15 06:36:14;;;;;;;0.65;0.40;;;;;;;-3.05;87.56;100963.78;5094666;27;97432;-31
2022/12/15 06:38:43;;;;;;;0.65;0.65;;;;;;;-3.07;87.74;100960.25;5075542;27;97501;-32
2022/12/15 06:41:15;;;;;;;4.10;0.95;;;;;;;-3.05;87.83;100962.88;5094594;27;96642;-31
2022/12/15 06:43:41;;;;;;;1.23;1.05;;;;;;;-3.07;87.57;100970.88;5075823;27;100984;-34
2022/12/15 06:46:07;;;;;;;0.95;0.77;;;;;;;-3.13;87.22;100968.22;5094313;27;99119;-31
2022/12/15 06:48:34;;;;;;;1.05;0.93;;;;;;;-3.13;87.20;100976.16;5094622;27;96550;-32
2022/12/15 06:51:04;;;;;;;1.80;1.02;;;;;;;-3.13;87.29;100977.94;5076013;27;96910;-31
2022/12/15 06:53:29;;;;;;;0.75;0.75;;;;;;;-3.12;87.41;100971.75;5075751;27;101021;-31
2022/12/15 06:56:00;;;;;;;1.15;1.00;;;;;;;-3.09;87.50;100985.00;5094668;27;97898;-32
2022/12/15 06:58:26;;;;;;;1.80;1.65;;;;;;;-3.10;87.29;100977.91;5075885;27;96502;-31
2022/12/15 07:00:52;;;;;;;0.77;0.50;;;;;;;-3.11;87.10;100974.41;5094408;27;96756;-31
2022/12/15 07:03:19;;;;;;;0.30;0.30;;;;;;;-3.10;87.16;100984.13;5075291;27;101205;-31
2022/12/15 07:05:45;;;;;;;0.47;0.47;;;;;;;-3.10;86.99;100976.19;5075422;27;101079;-33
2022/12/15 07:08:12;;;;;;;0.65;0.65;;;;;;;-3.13;87.08;100970.88;5075507;27;96601;-32
2022/12/15 07:10:43;;;;;;;0.70;0.70;;;;;;;-3.11;87.16;100977.03;5075663;27;96821;-31
2022/12/15 07:13:09;;;;;;;3.10;1.88;;;;;;;-3.11;87.31;100970.88;5075491;27;101154;-31
2022/12/15 07:15:35;;;;;;;0.57;0.57;;;;;;;-3.13;87.27;100972.66;5075277;27;101277;-33
2022/12/15 07:18:01;;;;;;;0.85;0.82;;;;;;;-3.16;87.40;100970.00;5075554;27;96602;-31
2022/12/15 07:20:26;;;;;;;0.47;0.47;;;;;;;-3.17;86.80;100974.44;5094670;27;96891;-31
2022/12/15 07:22:51;;;;;;;0.98;0.80;;;;;;;-3.15;87.17;100982.34;5093920;27;97912;-32
2022/12/15 07:25:18;;;;;;;0.75;0.75;;;;;;;-3.19;87.49;100989.44;5092924;27;98930;-31
2022/12/15 07:27:44;;;;;;;0.52;0.45;;;;;;;-3.24;87.32;100986.81;5074774;27;96966;-31
2022/12/15 07:30:11;;;;;;;0.63;0.63;;;;;;;-3.23;87.21;100990.34;5075597;27;96856;-31
2022/12/15 07:32:36;;;;;;;1.27;1.17;;;;;;;-3.24;87.39;100996.53;5074995;27;100942;-31
2022/12/15 07:35:04;;;;;;;0.98;0.90;;;;;;;-3.24;87.22;100989.47;5093420;27;99680;-32
2022/12/15 07:37:30;;;;;;;1.80;1.38;;;;;;;-3.23;87.53;100995.63;5074845;27;97569;-32
2022/12/15 07:39:55;;;;;;;0.95;0.80;;;;;;;-3.23;87.52;100996.50;5075066;27;96891;-31
2022/12/15 07:42:21;;;;;;;0.70;0.70;;;;;;;-3.21;87.43;101004.47;5093496;27;98973;-32
2022/12/15 07:44:46;;;;;;;1.48;1.15;;;;;;;-3.21;87.60;101000.03;5093904;27;98036;-31
2022/12/15 07:47:11;;;;;;;1.15;1.05;;;;;;;-3.19;87.73;101005.34;5093457;27;96530;-31
2022/12/15 07:49:36;;;;;;;4.65;0.70;;;;;;;-3.16;87.22;101013.28;5093850;27;96774;-32
2022/12/15 07:52:03;;;;;;;0.25;0.22;;;;;;;-3.15;87.60;101007.06;5092934;27;97956;-32
2022/12/15 07:54:28;;;;;;;1.77;1.38;;;;;;;-3.11;88.39;101011.50;5074821;27;101133;-31
2022/12/15 07:56:54;;;;;;;1.38;1.20;;;;;;;-3.06;89.18;101015.00;5093700;27;96555;-32
2022/12/15 07:59:19;;;;;;;0.35;0.35;;;;;;;-3.03;89.13;101016.75;5093662;27;96599;-33
2022/12/15 08:01:45;;;;;;;1.35;0.63;;;;;;;-3.06;88.74;101007.06;5093585;27;97990;-32
2022/12/15 08:04:11;;;;;;;1.67;0.95;;;;;;;-3.02;88.86;101005.28;5093495;27;97758;-31
2022/12/15 08:06:36;;;;;;;0.88;0.82;;;;;;;-3.01;89.26;101007.03;5093125;27;96638;-32
2022/12/15 08:09:01;;;;;;;9.70;1.35;;;;;;;-3.00;89.05;101003.53;5093945;27;96462;-31
2022/12/15 08:11:27;;;;;;;1.00;0.73;;;;;;;-3.02;88.41;101007.94;5093425;27;97904;-31
2022/12/15 08:13:52;;;;;;;0.50;0.50;;;;;;;-3.00;88.43;101015.00;5093372;27;97837;-33
2022/12/15 08:16:18;;;;;;;0.95;0.93;;;;;;;-3.00;88.39;101020.28;5092937;27;96690;-32
2022/12/15 08:18:43;;;;;;;2.33;1.50;;;;;;;-2.92;88.65;101022.03;5092960;27;96826;-31
2022/12/15 08:21:10;;;;;;;2.10;1.38;;;;;;;-2.90;89.21;101029.09;5092941;27;99429;-31
2022/12/15 08:23:37;;;;;;;0.85;0.85;;;;;;;-2.85;89.62;101031.72;5093447;27;97289;-31
2022/12/15 08:26:04;;;;;;;0.85;0.85;;;;;;;-2.76;89.81;101034.34;5074109;27;96892;-31
2022/12/15 08:28:31;;;;;;;1.67;1.58;;;;;;;-2.70;90.00;101028.13;5074498;27;96728;-32
2022/12/15 08:31:03;;;;;;;1.13;1.02;;;;;;;-2.63;89.80;101035.16;5074511;27;101272;-31
2022/12/15 08:33:29;;;;;;;1.17;1.08;;;;;;;-2.60;89.92;101036.03;5074815;27;100912;-32
2022/12/15 08:36:06;;;;;;;2.42;1.23;;;;;;;-2.48;90.03;101043.06;5092891;27;96501;-31
2022/12/15 08:38:32;;;;;;;1.20;1.10;;;;;;;-2.49;90.06;101030.69;5076026;27;97226;-31
2022/12/15 08:41:06;;;;;;;2.53;1.27;;;;;;;-2.42;90.38;101037.72;5096494;27;97365;-32
2022/12/15 08:43:31;;;;;;;0.77;0.77;;;;;;;-2.37;89.82;101032.38;5077915;27;101226;-31
2022/12/15 08:45:58;;;;;;;1.67;1.33;;;;;;;-2.36;90.07;101037.69;5096613;27;96553;-33
2022/12/15 08:48:24;;;;;;;1.95;1.73;;;;;;;-2.29;90.39;101038.50;5077526;27;96832;-31
2022/12/15 08:50:49;;;;;;;0.70;0.68;;;;;;;-2.25;90.57;101042.03;5096407;27;98003;-32
2022/12/15 08:53:14;;;;;;;1.05;0.77;;;;;;;-2.35;89.99;101044.75;5096522;27;97738;-31
2022/12/15 08:55:40;;;;;;;1.75;1.50;;;;;;;-2.30;89.98;101041.19;5096517;27;96576;-31
2022/12/15 08:58:05;;;;;;;1.17;1.05;;;;;;;-2.26;90.58;101037.63;5096735;27;96803;-31
2022/12/15 09:00:31;;;;;;;1.90;0.77;;;;;;;-2.23;90.15;101035.84;5096099;27;99280;-33
2022/12/15 09:02:59;;;;;;;1.92;0.93;;;;;;;-2.15;90.74;101043.75;5095963;27;97392;-33
2022/12/15 09:05:24;;;;;;;1.98;1.50;;;;;;;-2.14;90.72;101046.41;5095541;27;96604;-31
2022/12/15 09:07:57;;;;;;;0.52;0.52;;;;;;;-2.07;91.29;101038.38;5096384;27;96828;-31
2022/12/15 09:10:23;;;;;;;1.40;1.05;;;;;;;-2.02;91.67;101045.44;5077415;27;101142;-33
2022/12/15 09:12:48;;;;;;;2.35;1.85;;;;;;;-1.93;91.43;101044.50;5095900;27;99732;-32
2022/12/15 09:15:14;;;;;;;1.02;0.93;;;;;;;-1.89;91.44;101040.91;5095733;27;96615;-31
2022/12/15 09:17:39;;;;;;;1.08;1.00;;;;;;;-1.90;91.26;101043.59;5096268;27;96723;-31
2022/12/15 09:20:05;;;;;;;1.42;1.10;;;;;;;-1.92;90.80;101040.94;5095464;27;99269;-31
2022/12/15 09:22:31;;;;;;;1.08;1.00;;;;;;;-1.87;90.90;101051.53;5096165;27;98816;-31
2022/12/15 09:24:56;;;;;;;2.15;1.23;;;;;;;-1.85;90.50;101055.06;5095307;27;96805;-31
2022/12/15 09:27:22;;;;;;;2.50;2.00;;;;;;;-1.77;91.23;101051.44;5096036;27;96723;-31
2022/12/15 09:29:47;;;;;;;1.38;0.85;;;;;;;-1.71;91.21;101053.19;5094825;27;99468;-31
2022/12/15 09:32:15;;;;;;;6.55;2.47;;;;;;;-1.63;91.21;101055.75;5095760;27;97058;-32
2022/12/15 09:34:40;;;;;;;1.63;1.52;;;;;;;-1.58;91.14;101062.78;5095627;27;96644;-31
2022/12/15 09:37:06;;;;;;;1.30;1.02;;;;;;;-1.49;91.36;101061.84;5095631;27;96770;-31
2022/12/15 09:39:31;;;;;;;2.83;1.35;;;;;;;-1.38;91.85;101062.63;5095720;27;97988;-31
2022/12/15 09:42:00;;;;;;;0.65;0.65;;;;;;;-1.29;92.48;101061.66;5095700;27;97810;-32
2022/12/15 09:44:28;;;;;;;1.83;1.73;;;;;;;-1.18;91.89;101064.22;5095807;27;96468;-32
2022/12/15 09:47:08;;;;;;;1.27;1.15;;;;;;;-1.10;93.33;101065.91;5077375;27;96769;-31
2022/12/15 09:49:54;;;;;;;1.27;1.17;;;;;;;-0.96;91.99;101067.53;5075526;27;100803;-31
2022/12/15 09:52:34;;;;;;;1.27;1.15;;;;;;;-0.87;92.12;101070.09;5095332;27;99160;-32
2022/12/15 09:55:00;;;;;;;0.70;0.70;;;;;;;-0.77;92.85;101078.84;5076014;27;96764;-31
2022/12/15 09:57:42;;;;;;;2.53;2.17;;;;;;;-0.72;92.43;101069.91;5095482;27;96726;-33
2022/12/15 10:00:20;;;;;;;0.47;0.47;;;;;;;-0.65;91.94;101081.34;5076844;27;99243;-31
2022/12/15 10:03:11;;;;;;;3.28;1.92;;;;;;;-0.53;91.33;101085.66;5095524;27;98221;-31
2022/12/15 10:05:46;;;;;;;1.17;1.07;;;;;;;-0.43;91.84;101088.19;5095575;27;96756;-33
2022/12/15 10:08:13;;;;;;;1.85;1.58;;;;;;;-0.36;91.41;101086.31;5076629;27;96779;-31
2022/12/15 10:10:58;;;;;;;1.02;0.95;;;;;;;-0.29;91.53;101079.13;5076424;27;101212;-32
2022/12/15 10:13:44;;;;;;;6.25;2.65;;;;;;;-0.16;91.59;101079.88;5076820;27;101106;-31
2022/12/15 10:16:29;;;;;;;3.67;2.22;;;;;;;-0.06;90.55;101085.03;5095490;27;96691;-33
2022/12/15 10:18:58;;;;;;;1.02;0.90;;;;;;;0.09;91.46;101091.03;5076269;27;96660;-32
2022/12/15 10:21:26;;;;;;;3.10;2.13;;;;;;;0.21;91.12;101077.53;5094536;27;97514;-31
2022/12/15 10:23:53;;;;;;;4.80;1.55;;;;;;;0.41;90.68;101085.22;5075603;27;101479;-31
2022/12/15 10:26:31;;;;;;;3.15;2.20;;;;;;;0.63;90.37;101091.97;5076155;27;96809;-33
2022/12/15 10:29:11;;;;;;;3.88;2.20;;;;;;;0.92;90.18;101092.38;5094994;27;96453;-32
2022/12/15 10:32:00;;;;;;;4.20;2.67;;;;;;;1.26;89.00;101095.28;5094903;27;97511;-31
2022/12/15 10:34:28;;;;;;;2.30;1.30;;;;;;;1.60;87.88;101094.63;5094697;27;97728;-32
2022/12/15 10:36:55;;;;;;;4.65;2.25;;;;;;;1.95;86.02;101093.84;5076044;27;97695;-32
2022/12/15 10:39:22;;;;;;;1.77;1.55;;;;;;;2.20;85.20;101109.34;5076394;27;96886;-31
2022/12/15 10:42:11;;;;;;;1.27;1.15;;;;;;;2.39;83.61;101104.47;5075994;27;101045;-32
2022/12/15 10:44:39;;;;;;;2.35;2.13;;;;;;;2.36;83.04;101100.06;5075977;27;98774;-33
2022/12/15 10:47:10;;;;;;;6.45;2.25;;;;;;;2.19;83.41;101097.75;5093643;27;96576;-32
2022/12/15 10:49:35;;;;;;;2.95;1.75;;;;;;;2.05;84.31;101083.84;5095122;27;96673;-31
2022/12/15 10:52:01;;;;;;;3.30;2.78;;;;;;;1.92;84.37;101086.78;5094402;27;97403;-32
2022/12/15 10:54:35;;;;;;;7.28;3.33;;;;;;;2.10;85.14;101081.97;5094478;27;97736;-31
2022/12/15 10:57:15;;;;;;;5.13;2.42;;;;;;;2.64;83.79;101083.34;5094588;27;96699;-31
2022/12/15 10:59:40;;;;;;;2.17;1.98;;;;;;;2.89;83.19;101080.94;5094447;27;96721;-32
2022/12/15 11:02:24;;;;;;;2.55;1.77;;;;;;;3.14;81.87;101078.47;5093980;27;97315;-32
2022/12/15 11:05:16;;;;;;;2.10;1.80;;;;;;;3.01;81.38;101077.06;5094497;27;98901;-31
2022/12/15 11:07:44;;;;;;;;;;;;;;;3.06;82.00;101078.66;5076013;27;96721;-32
2022/12/15 11:10:15;;;;;;;4.40;1.80;;;;;;;3.10;81.27;101075.00;5094603;27;96752;-32
2022/12/15 11:12:52;;;;;;;2.28;2.00;;;;;;;2.63;82.72;101076.25;5093505;27;99320;-31
2022/12/15 11:15:20;;;;;;;2.50;1.42;;;;;;;2.94;82.96;101076.34;5094048;27;99299;-31
2022/12/15 11:17:51;;;;;;;3.97;2.38;;;;;;;2.73;83.16;101077.75;5094302;27;96488;-31
2022/12/15 11:20:26;;;;;;;2.93;2.30;;;;;;;2.72;83.39;101078.69;5075341;27;96660;-32
2022/12/15 11:23:02;;;;;;;2.65;2.13;;;;;;;2.58;83.94;101078.16;5075362;27;100760;-31
2022/12/15 11:25:35;;;;;;;1.40;1.30;;;;;;;2.45;84.27;101083.78;5074695;27;100862;-31
2022/12/15 11:28:05;;;;;;;7.75;1.98;;;;;;;2.41;85.39;101082.13;5075381;27;97233;-32
2022/12/15 11:30:51;;;;;;;6.85;1.90;;;;;;;2.33;85.76;101089.44;5094182;27;96679;-31
2022/12/15 11:33:16;;;;;;;2.30;1.92;;;;;;;2.32;85.68;101090.34;5094121;27;97375;-31
2022/12/15 11:35:52;;;;;;;2.78;2.20;;;;;;;2.28;86.22;101077.97;5093736;27;98000;-31
2022/12/15 11:38:48;;;;;;;3.25;2.63;;;;;;;2.27;86.43;101079.78;5074889;27;97035;-32
2022/12/15 11:41:50;;;;;;;2.40;2.20;;;;;;;2.29;86.79;101075.28;5075014;27;96888;-31
2022/12/15 11:44:26;;;;;;;5.23;3.17;;;;;;;2.52;86.08;101065.81;5074854;27;100792;-31
2022/12/15 11:47:03;;;;;;;7.90;4.45;;;;;;;2.67;85.32;101062.75;5074929;27;101412;-31
2022/12/15 11:50:01;;;;;;;8.05;3.58;;;;;;;2.84;84.71;101061.44;5075058;27;96756;-32
2022/12/15 11:52:42;;;;;;;4.60;3.08;;;;;;;3.05;84.53;101059.97;5075100;27;96806;-31
2022/12/15 11:55:49;;;;;;;8.38;4.80;;;;;;;3.32;83.72;101059.22;5074728;27;100920;-31
2022/12/15 11:58:26;;;;;;;3.03;1.95;;;;;;;3.27;83.09;101058.47;5040498;27;100971;-32
2022/12/15 12:01:10;;;;;;;3.60;2.65;;;;;;;3.31;83.02;101061.94;5074918;27;96590;-31
2022/12/15 12:03:53;;;;;;;4.95;2.95;;;;;;;3.37;83.26;101062.66;5093585;27;96742;-31
2022/12/15 12:06:31;;;;;;;4.15;2.17;;;;;;;3.35;83.13;101053.78;5093236;27;97404;-32
2022/12/15 12:09:43;;;;;;;3.38;2.55;;;;;;;3.23;83.98;101062.16;5074692;27;100857;-31
2022/12/15 12:12:23;;;;;;;1.93;1.77;;;;;;;3.50;83.76;101059.59;5049179;27;96935;-32
2022/12/15 12:15:15;;;;;;;2.28;1.73;;;;;;;3.37;83.86;101057.28;5078456;27;96719;-31
2022/12/15 12:17:47;;;;;;;3.42;1.75;;;;;;;3.39;83.78;101049.22;5096594;27;99726;-32
2022/12/15 12:20:27;;;;;;;2.40;1.35;;;;;;;3.30;84.17;101047.69;5078050;27;101381;-31
2022/12/15 12:23:01;;;;;;;6.25;3.80;;;;;;;3.36;83.92;101036.81;5078153;27;96732;-31
2022/12/15 12:25:29;;;;;;;3.05;2.13;;;;;;;3.20;84.22;101035.47;5074596;27;96788;-32
2022/12/15 12:28:12;;;;;;;2.95;2.17;;;;;;;3.02;84.88;101031.50;5074816;27;101290;-31
2022/12/15 12:30:44;;;;;;;3.55;2.60;;;;;;;3.04;85.60;101027.00;5074779;27;101267;-32
2022/12/15 12:33:44;;;;;;;3.20;2.47;;;;;;;3.08;85.83;101028.66;5074192;27;97440;-31
2022/12/15 12:36:12;;;;;;;2.03;1.65;;;;;;;3.23;85.24;101019.31;5074727;27;97217;-32
2022/12/15 12:38:45;;;;;;;1.42;1.33;;;;;;;3.29;84.53;101023.63;5074447;27;101030;-31
2022/12/15 12:41:19;;;;;;;2.83;1.15;;;;;;;3.21;84.86;101028.31;5074653;27;100975;-31
2022/12/15 12:43:59;;;;;;;2.33;1.65;;;;;;;3.57;84.88;101024.56;5075706;27;96685;-31
2022/12/15 12:46:33;;;;;;;1.52;1.42;;;;;;;4.01;83.54;101019.66;5075973;27;96642;-34
2022/12/15 12:49:16;;;;;;;2.80;1.85;;;;;;;4.48;81.57;101013.66;5074322;27;100924;-31
2022/12/15 12:51:49;;;;;;;1.75;1.63;;;;;;;4.77;79.68;101010.00;5074801;27;101356;-31
2022/12/15 12:54:33;;;;;;;1.08;1.00;;;;;;;5.11;78.73;101004.28;5075778;27;97888;-31
2022/12/15 12:56:59;;;;;;;6.95;2.47;;;;;;;5.27;77.64;100996.53;5075865;27;96753;-31
2022/12/15 12:59:28;;;;;;;4.75;2.20;;;;;;;5.35;76.98;100998.94;5073794;27;98886;-32
2022/12/15 13:01:57;;;;;;;1.67;1.58;;;;;;;5.10;77.28;100999.84;5075808;27;97151;-30
2022/12/15 13:04:28;;;;;;;1.90;1.63;;;;;;;5.06;77.68;100998.19;5074208;27;96792;-31
2022/12/15 13:06:55;;;;;;;1.73;1.25;;;;;;;5.25;77.21;100987.66;5075380;27;96835;-31
2022/12/15 13:09:23;;;;;;;2.00;1.45;;;;;;;5.07;77.48;100993.69;5075521;27;97517;-31
2022/12/15 13:11:51;;;;;;;2.88;1.35;;;;;;;4.77;78.86;100995.69;5073987;27;100923;-32
2022/12/15 13:14:19;;;;;;;1.35;1.25;;;;;;;4.66;79.72;100990.69;5074143;27;96580;-30
2022/12/15 13:16:46;;;;;;;2.75;1.40;;;;;;;5.69;78.37;100976.16;5074368;27;96892;-31
2022/12/15 13:19:12;;;;;;;3.58;1.92;;;;;;;7.04;72.47;100978.59;5073445;27;100908;-32
2022/12/15 13:21:40;;;;;;;3.40;1.73;;;;;;;7.52;69.28;100979.09;5073738;27;99106;-31
2022/12/15 13:24:32;;;;;;;2.42;1.40;;;;;;;7.31;69.37;100984.53;5077013;27;96723;-31
2022/12/15 13:27:13;;;;;;;2.07;1.60;;;;;;;7.30;68.99;100976.53;5095772;27;96636;-31
2022/12/15 13:29:58;;;;;;;3.03;1.33;;;;;;;6.63;70.30;100981.28;5095732;27;99763;-30
2022/12/15 13:32:44;;;;;;;3.03;1.67;;;;;;;5.85;72.80;100979.09;5095697;27;97788;-31
2022/12/15 13:35:12;;;;;;;0.68;0.60;;;;;;;5.43;74.81;100979.84;5095883;27;96733;-31
2022/12/15 13:37:50;;;;;;;1.27;1.17;;;;;;;4.96;76.45;100975.31;5096137;27;96805;-32
2022/12/15 13:40:36;;;;;;;4.35;1.48;;;;;;;4.54;78.08;100980.41;5076926;27;99444;-31
2022/12/15 13:43:04;;;;;;;3.15;2.03;;;;;;;4.26;80.07;100982.19;5077291;27;100087;-32
2022/12/15 13:45:44;;;;;;;2.60;1.65;;;;;;;3.96;81.24;100984.09;5095700;27;96638;-31
2022/12/15 13:48:41;;;;;;;2.25;2.00;;;;;;;3.67;82.45;100970.72;5095383;27;96875;-33
2022/12/15 13:51:25;;;;;;;2.00;1.40;;;;;;;3.48;83.52;100973.09;5095132;27;97955;-31
2022/12/15 13:54:05;;;;;;;2.28;1.30;;;;;;;3.39;83.87;100969.78;5076785;27;100954;-31
2022/12/15 13:57:00;;;;;;;3.97;1.35;;;;;;;3.30;84.20;100967.38;5076689;27;96783;-31
2022/12/15 14:00:04;;;;;;;1.92;1.17;;;;;;;3.77;83.28;100962.34;5076952;27;96622;-31
2022/12/15 14:02:30;;;;;;;0.82;0.63;;;;;;;4.04;82.28;100965.94;5060696;27;100977;-31
2022/12/15 14:05:13;;;;;;;2.13;1.65;;;;;;;4.13;81.61;100963.91;5094893;27;99194;-31
2022/12/15 14:07:57;;;;;;;2.30;1.60;;;;;;;4.41;81.13;100963.81;5095211;27;96447;-32
2022/12/15 14:10:33;;;;;;;1.52;0.90;;;;;;;4.78;79.92;100966.09;5077049;27;96674;-31
2022/12/15 14:13:07;;;;;;;2.60;0.82;;;;;;;4.85;79.39;100964.09;5076474;27;101039;-31